Terminal Aerodrome Forecast
Issued by NWS Cleveland, OH

Home | Current Version | Previous Version | Graphics & Text | Print | Product List | Glossary On
Versions: 1 2 3 4 5 6 7 8 9 10 11 12 13 14 15 16 17 18 19 20 21 22 23 24 25 26
899
FTUS41 KCLE 071454 AAA
TAFCLE
TAF AMD
KCLE 071454Z 0715/0818 19009KT P6SM BKN250
     FM072100 19008KT P6SM OVC100
     FM080800 19007KT 6SM -RA OVC025
     FM081000 18007KT 4SM -RA BR OVC015
     FM081200 20007KT 2SM -SN BR OVC004=

USA.gov is the U.S. government's official web portal to all federal, state and local government web resources and services.